x

Ilm2 - 5 Miles Se Of Wrightsville Beach, Nc (41038) Weather Station

2:00 - Wed 23rd Apr 2014 All times are EDT. -4 hours from GMT.

  • Wind
    7mph, 9mph gusts
  • Sea Temp 60°f
  • Luft Temp 63°f
  • Sea Pressure 1006.1mb
  • Ilm2 - 5 Miles Se Of Wrightsville Beach, Nc
  • Ilm2 - 5 Miles Se Of Wrightsville Beach, Nc

More Historic Weather Station data

Upgrade to MSW Pro to gain access to the past 30 days of data for over 8000 Wavebouys and Weather Stations around the globe.

Join Pro

Comparision Forecast

View Surf forecast
   
Mi 04/23 2:00 7 9 mph 1006.1mb 60f 63f
1:00 7 9 mph 1006.4mb 60f 62f
12:00 11
mph
1006.7mb 60f 63f
Di 04/22 11:00 9 11 mph 1006.7mb 60f 63f
10:00 13 16 mph 1005.9mb 60f 63f
9:00 16 18 mph 1005.7mb 60f 63f
8:00 18 20 mph 1005.5mb 60f 64f
7:00 16 18 mph 1005.7mb 60f 64f
6:00 18 20 mph 1005.8mb 60f 63f
5:00 18 20 mph 1005.9mb 60f 63f
4:00 18 20 mph 1006.2mb 60f 62f
3:00 18
mph
1007.4mb 60f 62f
2:00 18 20 mph 1008.1mb 60f 63f
1:00 16 18 mph 1008.6mb 60f 63f
12:00 13 16 mph 1009.6mb 60f 63f
11:00 9 11 mph 1010.5mb 60f 62f
10:00 7 9 mph 1011.1mb 59f 61f
9:00 7 9 mph 1011.3mb 59f 61f
8:00 7 9 mph 1011.6mb 59f 60f
7:00 7 9 mph 1011.6mb 59f 60f
6:00 4
mph
1011.5mb 58f 59f
5:00 4
mph
1011.5mb 59f 59f
4:00 4
mph
1011.5mb 59f 59f
3:00 4
mph
1012mb 59f 59f
2:00 2 4 mph 1012.6mb 60f 60f
1:00 2 4 mph 1013.2mb 60f 60f
12:00 4 7 mph 1013.9mb 60f 60f
Mo 04/21 11:00 4 7 mph 1014.3mb 59f 60f
10:00 2 4 mph 1014.5mb 60f 60f
9:00 7 9 mph 1014.2mb 60f 61f
8:00 2 4 mph 1014.1mb 60f 61f
7:00 4 7 mph 1013.8mb 60f 63f
6:00 4 7 mph 1013.9mb 59f 64f
5:00 2 7 mph 1014.2mb 59f 66f
4:00 4 7 mph 1014.7mb 59f 64f
3:00 9
mph
1015.2mb 59f 63f
2:00 9 11 mph 1015.7mb 58f 62f
1:00 11 16 mph 1016.2mb 58f 62f
12:00 13 18 mph 1016.7mb 58f 61f
11:00 18 22 mph 1016.6mb 58f 59f
10:00 18 22 mph 1016.6mb 58f 57f
9:00 22 29 mph 1016.4mb 58f 54f
8:00 25 29 mph 1016.5mb 58f 53f
7:00 27 31 mph 1016.3mb 58f 54f
6:00 25 29 mph 1016.1mb 58f 54f
5:00 22 27 mph 1016mb 58f 54f
4:00 25 27 mph 1016.2mb 58f 54f
3:00 25 29 mph 1016.3mb 58f 54f
2:00 27 31 mph 1016.8mb 58f 55f
1:00 29 36 mph 1017.5mb 58f 56f
12:00 31 36 mph 1017.9mb 58f 56f
So 04/20 11:00 25 29 mph 1018.2mb 58f 56f
10:00 27 31 mph 1018mb 58f 56f
9:00 27 34 mph 1017.9mb 58f 56f
8:00 29 31 mph 1017.2mb 58f 57f
7:00 27 34 mph 1016.6mb 58f 57f
6:00 27 36 mph 1015.4mb 58f 58f
5:00 29 38 mph 1015.6mb 58f 58f
4:00 31 36 mph 1016.7mb 58f 58f
3:00 31 36 mph 1016.7mb 59f 59f
2:00 27 34 mph 1016.8mb 59f 58f
1:00 25 31 mph 1016.6mb 59f 58f
12:00 29 34 mph 1016.8mb 59f 56f
11:00 31 43 mph 1017mb 59f 55f
10:00 27 36 mph 1017.1mb 59f 55f
9:00 27 34 mph 1016.8mb 59f 56f
8:00 29 34 mph 1017.1mb 59f 55f
7:00 25 31 mph 1017.1mb 59f 55f
6:00 29 36 mph 1014.9mb 59f 57f
5:00 25 34 mph 1015.4mb 59f 58f
4:00 29 34 mph 1015.4mb 59f 57f
3:00 27 34 mph 1015.9mb 59f 57f
2:00 29 38 mph 1016mb 59f 56f
1:00 34 43 mph 1016.3mb 59f 55f
12:00 27 31 mph 1017mb 59f 55f
Sa 04/19 11:00 31 38 mph 1016.2mb 59f 56f
10:00 34 43 mph 1017.3mb 59f 55f
9:00 31 36 mph 1016.6mb 59f 55f
8:00 29 36 mph 1017.2mb 59f 56f
7:00 29 36 mph 1016.6mb 59f 56f
6:00 27 31 mph 1016.4mb 59f 56f
5:00 29 36 mph 1015.4mb 59f 58f
4:00 29 34 mph 1015.2mb 59f 58f
3:00 31 38 mph 1015mb 59f 59f
2:00 31 38 mph 1015.5mb 59f 58f
1:00 25 29 mph 1016.3mb 59f 59f
12:00 25 27 mph 1016.8mb 59f 59f
11:00 20 25 mph 1017.2mb 59f 59f
10:00 27 34 mph 1015.6mb 59f 58f
9:00 29 34 mph 1014.8mb 59f 57f
8:00 22 27 mph 1016.1mb 59f 56f